Aeroporto :
LOGIN :

Iscrizione | Disclaimer

   EN    FR    IT 

 










Sommario :    VFR   VFR Marginale   IFR   IFR Intensivo   IFR Molto Intensivo
Visibilità : 
Base nubi : 
>= 8 km
>= 3000ft
5 / 8 km
1000 / 3000 ft
1500m / 5 km
500 / 1000 ft
800 / 1500m
200 / 500 ft
< 800m
< 200 ft
Simboli :   Temporali  Nebbia  Neve Forte  Precipitazioni Forti  Vento > 20 kt
SIGMETs :   Varie  Temporali  Ghiacco  Turbolenza  Onda orograficha  Ceneri Vulcaniche






- Altitudine del aeroporto : 23 ft
- Codice IATA : XFW


EDHI - Hamburg Finkenwerder

ULTIMO METAR :
  • 262250Z AUTO VRB02KT 8000 // BKN026/// 04/02 Q1012

METARs OBSOLETI :
  • 262220Z AUTO VRB02KT 8000 // FEW026/// BKN032/// 03/02 Q1012
  • 262150Z AUTO 11003KT 080V140 7000 // FEW045/// BKN055/// 03/02 Q1012
  • 262120Z AUTO 12003KT 080V160 6000 // FEW051/// 02/02 Q1013
  • 262050Z AUTO VRB02KT 6000 // SCT051/// BKN089/// 02/01 Q1013
  • 262020Z AUTO 13003KT 100V160 6000 // BKN091/// 02/02 Q1013
  • 261950Z AUTO 13004KT 6000 // OVC093/// 03/02 Q1013

Previsioni scadute.



MetMap, La meteo Aeronautica in un colpo d'occhio ! - Copyright ORBIFLY Dicembre 2007 - Disclaimer

ORBIFLY MET'MAP TEAM :

Programmazione e sviluppo : Alexandra Zaïnal
Concezione : Baudouin d'Aumeries
Aiuto per la programmazione : Marc-Olivier Méhu
Supporto tecnico e logistico : Manuel Goepfert
Aiuto per la traduzione : Arnaldo La Scala

Contatto : metmap@orbifly.com




FONTI E CREDITI :

   NOAA